Date,TemperatureHighF,TemperatureAvgF,TemperatureLowF,DewpointHighF,DewpointAvgF,DewpointLowF,HumidityHigh,HumidityAvg,HumidityLow,PressureMaxIn,PressureMinIn,WindSpeedMaxMPH,WindSpeedAvgMPH,GustSpeedMaxMPH,PrecipitationSumIn
2013-8-1,90.3,77.9,70.8,80.1,74.2,70.8,100,90,54,29.97,29.88,15,0,15,1.67
2013-8-2,91.8,80.3,70.4,79.9,74.1,70.1,100,84,52,29.95,29.86,6,0,6,0.01
2013-8-3,91.8,80.2,73.7,80.3,76.2,70.8,100,89,56,30.00,29.91,17,1,17,0.25
2013-8-4,88.2,79.5,74.6,81.0,77.5,73.9,100,94,74,29.99,29.89,13,1,13,0.51
2013-8-5,92.6,81.3,75.2,82.6,77.4,74.0,100,89,60,29.93,29.82,14,0,14,0.40
2013-8-6,92.8,79.8,72.8,80.5,76.6,72.1,100,91,64,29.90,29.81,19,0,19,1.54
2013-8-7,91.8,80.8,73.5,81.2,77.2,73.3,100,90,59,29.90,29.83,11,0,11,1.04
2013-8-8,92.7,81.6,73.3,80.2,76.2,73.0,100,85,58,29.96,29.87,19,1,19,0.00
2013-8-9,90.9,80.1,72.1,80.6,75.7,71.3,100,88,60,29.99,29.90,17,1,17,0.00
2013-8-10,93.1,81.2,69.6,81.6,75.5,68.7,100,84,56,30.05,29.96,11,0,11,0.00
2013-8-11,93.6,82.3,71.8,80.9,75.0,70.6,100,81,51,30.07,29.98,13,0,13,0.00
2013-8-12,94.3,81.9,71.1,80.4,75.4,71.0,100,82,55,30.04,29.91,10,0,10,0.00
2013-8-13,95.1,82.6,72.8,79.0,75.1,69.2,100,80,44,29.96,29.84,10,0,11,0.00
2013-8-14,95.1,80.8,72.7,80.6,76.1,72.7,100,87,52,29.93,29.81,12,0,12,0.04
2013-8-15,94.3,81.9,71.8,80.0,75.0,70.8,100,82,51,29.95,29.83,15,1,15,0.00
2013-8-16,91.6,81.5,74.4,80.0,75.9,72.3,100,84,57,29.98,29.87,22,1,22,0.01
2013-8-17,92.5,79.5,74.3,81.1,75.6,72.7,100,89,59,30.02,29.89,23,1,23,0.00
2013-8-18,90.8,80.2,72.3,81.8,76.0,71.4,100,88,61,30.02,29.93,15,1,15,0.00
2013-8-24,76.0,74.9,74.1,75.8,74.1,72.8,100,97,96,30.05,30.01,0,0,0,1.35
2013-8-25,85.7,78.0,71.8,78.9,75.4,71.0,100,92,74,30.09,30.01,15,0,15,0.66
2013-8-26,87.4,78.3,73.3,79.1,75.2,72.9,100,91,68,30.07,29.95,3,0,3,1.40
2013-8-27,88.2,78.4,70.4,78.3,72.9,70.0,100,85,58,30.00,29.92,6,0,6,0.40
2013-8-28,90.1,77.9,66.4,77.4,70.5,65.6,100,80,51,29.99,29.89,10,0,10,0.00
2013-8-29,93.6,80.1,68.3,77.9,72.2,67.4,100,80,45,29.96,29.83,9,0,9,0.01
2013-8-30,94.2,82.0,72.5,79.8,74.8,68.5,100,82,46,29.91,29.79,10,0,14,0.01
2013-8-31,90.0,79.9,72.8,79.8,75.0,69.4,100,86,60,29.89,29.79,18,0,18,0.00